createdAt,value
2019-02-16T00:00:15.990Z,6.00
2019-02-16T00:02:41.896Z,6.04
2019-02-16T00:05:07.825Z,6.05
2019-02-16T00:07:33.626Z,5.99
2019-02-16T00:09:59.454Z,5.78
2019-02-16T00:12:25.242Z,5.69
2019-02-16T00:14:53.836Z,5.72
2019-02-16T00:17:19.630Z,5.51
2019-02-16T00:19:47.292Z,5.52
2019-02-16T00:22:13.080Z,5.46
2019-02-16T00:24:41.902Z,5.49
2019-02-16T00:27:07.700Z,5.51
2019-02-16T00:29:38.255Z,5.40
2019-02-16T00:32:04.063Z,5.36
2019-02-16T00:34:33.283Z,5.40
2019-02-16T00:36:59.152Z,5.45
2019-02-16T00:39:25.319Z,5.36
2019-02-16T00:41:51.145Z,5.37
2019-02-16T00:44:16.946Z,5.30
2019-02-16T00:46:42.736Z,5.25
2019-02-16T00:49:08.825Z,5.19
2019-02-16T00:51:37.135Z,5.18
2019-02-16T00:54:02.993Z,5.16
2019-02-16T00:56:33.011Z,5.06
2019-02-16T00:58:59.066Z,5.04
2019-02-16T01:01:27.984Z,4.93
2019-02-16T01:03:53.803Z,4.96
2019-02-16T01:06:22.623Z,4.96
2019-02-16T01:08:48.767Z,4.85
2019-02-16T01:11:17.334Z,4.79
2019-02-16T01:13:43.166Z,4.75
2019-02-16T01:16:11.845Z,4.74
2019-02-16T01:18:37.701Z,4.65
2019-02-16T01:21:03.818Z,4.63
2019-02-16T01:23:29.625Z,4.64
2019-02-16T01:25:55.732Z,4.54
2019-02-16T01:28:24.428Z,4.48
2019-02-16T01:30:50.346Z,4.37
2019-02-16T01:33:19.186Z,4.47
2019-02-16T01:35:45.019Z,4.45
2019-02-16T01:38:13.619Z,4.38
2019-02-16T01:40:39.764Z,4.33
2019-02-16T01:43:07.621Z,4.22
2019-02-16T01:45:33.715Z,4.12
2019-02-16T01:48:02.844Z,4.18
2019-02-16T01:50:28.940Z,4.12
2019-02-16T01:52:57.786Z,4.10
2019-02-16T01:55:23.850Z,4.14
2019-02-16T01:57:49.971Z,4.10
2019-02-16T02:00:15.775Z,4.13
2019-02-16T02:02:41.602Z,4.15
2019-02-16T02:05:10.541Z,4.17
2019-02-16T02:07:36.369Z,4.20
2019-02-16T02:10:06.737Z,4.20
2019-02-16T02:12:32.842Z,4.03
2019-02-16T02:14:58.732Z,3.96
2019-02-16T02:17:24.548Z,3.92
2019-02-16T02:19:53.461Z,3.79
2019-02-16T02:22:19.260Z,3.77
2019-02-16T02:24:48.119Z,3.64
2019-02-16T02:27:14.213Z,3.63
2019-02-16T02:29:43.046Z,3.58
2019-02-16T02:32:09.257Z,3.45
2019-02-16T02:34:35.089Z,3.21
2019-02-16T02:37:01.169Z,3.00
2019-02-16T02:39:26.952Z,2.99
2019-02-16T02:41:54.421Z,3.12
2019-02-16T02:44:20.527Z,3.25
2019-02-16T02:46:49.213Z,3.27
2019-02-16T02:49:15.301Z,3.26
2019-02-16T02:51:51.680Z,3.48
2019-02-16T02:54:11.701Z,3.54
2019-02-16T02:56:40.611Z,3.52
2019-02-16T02:59:06.397Z,3.46
2019-02-16T03:01:34.997Z,3.13
2019-02-16T03:04:00.838Z,3.03
2019-02-16T03:06:29.711Z,3.14
2019-02-16T03:08:55.514Z,3.19
2019-02-16T03:11:21.340Z,3.14
2019-02-16T03:13:47.419Z,2.90
2019-02-16T03:16:13.244Z,2.71
2019-02-16T03:18:40.842Z,2.70
2019-02-16T03:21:06.639Z,2.87
2019-02-16T03:23:35.743Z,2.95
2019-02-16T03:26:14.418Z,3.01
2019-02-16T03:28:52.934Z,2.91
2019-02-16T03:31:28.274Z,2.94
2019-02-16T03:34:04.050Z,2.96
2019-02-16T03:36:50.354Z,3.03
2019-02-16T03:39:16.605Z,3.06
2019-02-16T03:41:42.688Z,3.02
2019-02-16T03:44:08.526Z,2.97
2019-02-16T03:46:34.341Z,3.01
2019-02-16T03:49:00.163Z,3.08
2019-02-16T03:51:26.225Z,3.14
2019-02-16T03:53:52.046Z,3.11
2019-02-16T03:56:17.863Z,3.05
2019-02-16T03:58:43.915Z,2.97
2019-02-16T04:01:09.760Z,2.86
2019-02-16T04:03:35.581Z,2.65
2019-02-16T04:06:01.645Z,2.50
2019-02-16T04:08:27.749Z,2.54
2019-02-16T04:10:53.837Z,2.58
2019-02-16T04:13:19.661Z,2.65
2019-02-16T04:15:45.731Z,2.61
2019-02-16T04:18:11.542Z,2.61
2019-02-16T04:20:37.670Z,2.67
2019-02-16T04:23:03.471Z,2.45
2019-02-16T04:25:29.288Z,2.36
2019-02-16T04:27:55.103Z,2.36
2019-02-16T04:30:20.921Z,2.38
2019-02-16T04:32:47.101Z,2.36
2019-02-16T04:35:13.257Z,2.38
2019-02-16T04:37:39.073Z,2.38
2019-02-16T04:40:04.855Z,2.40
2019-02-16T04:42:30.734Z,2.36
2019-02-16T04:44:56.550Z,2.35
2019-02-16T04:47:22.381Z,2.29
2019-02-16T04:49:48.439Z,2.03
2019-02-16T04:52:14.258Z,1.99
2019-02-16T04:54:40.506Z,2.07
2019-02-16T04:57:06.643Z,2.15
2019-02-16T04:59:32.476Z,2.13
2019-02-16T05:01:58.275Z,2.26
2019-02-16T05:04:24.076Z,2.24
2019-02-16T05:06:49.914Z,2.19
2019-02-16T05:09:15.716Z,2.22
2019-02-16T05:11:41.540Z,2.24
2019-02-16T05:14:07.631Z,2.19
2019-02-16T05:16:33.414Z,2.21
2019-02-16T05:18:59.506Z,2.29
2019-02-16T05:21:25.302Z,2.07
2019-02-16T05:23:51.174Z,1.89
2019-02-16T05:26:16.982Z,1.87
2019-02-16T05:28:42.784Z,1.86
2019-02-16T05:31:08.974Z,1.86
2019-02-16T05:33:35.127Z,1.86
2019-02-16T05:36:00.932Z,1.82
2019-02-16T05:38:27.350Z,1.86
2019-02-16T05:40:53.171Z,1.93
2019-02-16T05:43:19.265Z,2.05
2019-02-16T05:45:45.089Z,2.01
2019-02-16T05:48:11.297Z,2.02
2019-02-16T05:50:37.413Z,1.97
2019-02-16T05:53:03.269Z,1.72
2019-02-16T05:55:32.085Z,1.79
2019-02-16T05:57:58.139Z,1.78
2019-02-16T06:00:28.904Z,1.71
2019-02-16T06:02:54.721Z,1.75
2019-02-16T06:05:20.633Z,1.79
2019-02-16T06:07:46.685Z,1.81
2019-02-16T06:10:15.297Z,1.81
2019-02-16T06:12:41.068Z,1.76
2019-02-16T06:15:07.930Z,1.66
2019-02-16T06:17:33.755Z,1.58
2019-02-16T06:19:59.612Z,1.53
2019-02-16T06:22:29.447Z,1.55
2019-02-16T06:24:55.248Z,1.55
2019-02-16T06:27:24.198Z,1.53
2019-02-16T06:29:50.311Z,1.47
2019-02-16T06:32:16.092Z,1.50
2019-02-16T06:34:41.930Z,1.56
2019-02-16T06:37:21.539Z,1.48
2019-02-16T06:39:48.175Z,1.51
2019-02-16T06:42:13.990Z,1.49
2019-02-16T06:44:39.862Z,1.51
2019-02-16T06:47:05.619Z,1.45
2019-02-16T06:49:31.710Z,1.40
2019-02-16T06:51:57.506Z,1.32
2019-02-16T06:54:23.302Z,1.24
2019-02-16T06:57:06.300Z,1.53
2019-02-16T06:59:32.091Z,1.83
2019-02-16T07:01:57.879Z,2.44
2019-02-16T07:04:23.694Z,2.98
2019-02-16T07:06:49.495Z,3.67
2019-02-16T07:09:15.442Z,4.09
2019-02-16T07:11:41.273Z,4.67
2019-02-16T07:14:07.355Z,5.40
2019-02-16T07:16:41.366Z,6.00
2019-02-16T07:19:11.992Z,6.83
2019-02-16T07:21:38.103Z,7.11
2019-02-16T07:24:03.888Z,7.41
2019-02-16T07:26:30.005Z,7.73
2019-02-16T07:28:56.098Z,8.30
2019-02-16T07:31:22.024Z,8.85
2019-02-16T07:33:47.963Z,9.20
2019-02-16T07:36:13.750Z,9.60
2019-02-16T07:38:39.558Z,10.57
2019-02-16T07:41:05.624Z,10.84
2019-02-16T07:43:38.955Z,11.31
2019-02-16T07:46:15.492Z,10.82
2019-02-16T07:48:43.226Z,10.82
2019-02-16T07:51:17.255Z,11.11
2019-02-16T07:53:45.242Z,11.25
2019-02-16T07:56:12.953Z,11.84
2019-02-16T07:58:43.476Z,12.45
2019-02-16T08:01:14.175Z,13.54
2019-02-16T08:03:47.958Z,13.91
2019-02-16T08:06:28.020Z,14.44
2019-02-16T08:09:02.957Z,14.78
2019-02-16T08:11:35.359Z,14.58
2019-02-16T08:14:19.794Z,14.14
2019-02-16T08:16:53.578Z,13.64
2019-02-16T08:19:23.017Z,14.58
2019-02-16T08:21:53.932Z,15.44
2019-02-16T08:24:24.671Z,15.25
2019-02-16T08:26:55.086Z,15.65
2019-02-16T08:29:28.872Z,16.54
2019-02-16T08:31:59.870Z,16.48
2019-02-16T08:34:30.750Z,16.68
2019-02-16T08:37:01.768Z,16.68
2019-02-16T08:39:29.743Z,17.48
2019-02-16T08:42:09.950Z,18.67
2019-02-16T08:44:43.574Z,18.85
2019-02-16T08:47:20.644Z,19.72
2019-02-16T08:49:51.163Z,20.26
2019-02-16T08:52:18.831Z,20.18
2019-02-16T08:55:03.377Z,20.13
2019-02-16T08:57:46.186Z,20.10
2019-02-16T09:00:19.659Z,20.70
2019-02-16T09:02:47.380Z,21.27
2019-02-16T09:05:15.127Z,21.16
2019-02-16T09:07:55.021Z,21.44
2019-02-16T09:10:25.963Z,21.13
2019-02-16T09:12:53.945Z,21.40
2019-02-16T09:15:33.886Z,22.45
2019-02-16T09:18:01.562Z,21.48
2019-02-16T09:20:29.300Z,21.62
2019-02-16T09:22:59.761Z,22.15
2019-02-16T09:25:30.666Z,21.68
2019-02-16T09:27:58.387Z,21.24
2019-02-16T09:30:41.656Z,20.89
2019-02-16T09:33:12.186Z,21.61
2019-02-16T09:35:43.047Z,22.07
2019-02-16T09:38:27.654Z,22.52
2019-02-16T09:41:12.069Z,22.31
2019-02-16T09:43:42.848Z,22.48
2019-02-16T09:46:22.442Z,22.30
2019-02-16T09:49:02.442Z,21.75
2019-02-16T09:51:42.178Z,22.06
2019-02-16T09:54:16.371Z,22.34
2019-02-16T09:56:59.152Z,22.39
2019-02-16T09:59:35.435Z,21.98
2019-02-16T10:02:03.393Z,21.70
2019-02-16T10:04:34.411Z,22.10
2019-02-16T10:07:20.613Z,22.45
2019-02-16T10:12:41.189Z,23.32
2019-02-16T10:15:20.893Z,23.13
2019-02-16T10:17:48.587Z,23.27
2019-02-16T10:20:19.165Z,23.64
2019-02-16T10:22:55.026Z,23.28
2019-02-16T10:25:31.541Z,22.61
2019-02-16T10:28:11.410Z,23.92
2019-02-16T10:30:42.144Z,23.83
2019-02-16T10:33:09.836Z,24.42
2019-02-16T10:35:54.399Z,24.70
2019-02-16T10:38:39.534Z,24.42
2019-02-16T10:41:23.630Z,24.61
2019-02-16T10:43:57.973Z,24.98
2019-02-16T10:46:25.685Z,24.53
2019-02-16T10:48:56.200Z,25.09
2019-02-16T10:51:25.022Z,24.29
2019-02-16T10:54:00.912Z,23.56
2019-02-16T10:56:28.724Z,23.53
2019-02-16T10:59:13.097Z,24.04
2019-02-16T11:01:41.101Z,24.67
2019-02-16T11:04:20.723Z,23.98
2019-02-16T11:06:51.314Z,24.78
2019-02-16T11:09:19.006Z,24.62
2019-02-16T11:12:03.688Z,24.71
2019-02-16T11:14:31.375Z,24.56
2019-02-16T11:17:08.088Z,24.68
2019-02-16T11:19:54.063Z,24.76
2019-02-16T11:22:38.808Z,25.23
2019-02-16T11:25:26.297Z,25.62
2019-02-16T11:27:54.259Z,25.14
2019-02-16T11:30:21.960Z,24.86
2019-02-16T11:33:01.716Z,24.93
2019-02-16T11:35:29.428Z,25.45
2019-02-16T11:37:57.157Z,26.00
2019-02-16T11:40:30.723Z,25.19
2019-02-16T11:43:01.482Z,24.38
2019-02-16T11:45:35.052Z,24.14
2019-02-16T11:48:19.556Z,24.47
2019-02-16T11:50:59.363Z,24.22
2019-02-16T11:53:27.080Z,24.16
2019-02-16T11:55:54.770Z,25.02
2019-02-16T11:58:34.236Z,25.87
2019-02-16T12:01:01.919Z,24.66
2019-02-16T12:03:29.736Z,24.10
2019-02-16T12:06:00.222Z,24.36
2019-02-16T12:08:45.302Z,24.73
2019-02-16T12:11:33.841Z,24.94
2019-02-16T12:14:18.614Z,24.66
2019-02-16T12:16:55.467Z,23.77
2019-02-16T12:19:29.788Z,23.48
2019-02-16T12:22:09.898Z,24.04
2019-02-16T12:24:41.118Z,24.25
2019-02-16T12:27:29.237Z,24.50
2019-02-16T12:30:00.400Z,24.83
2019-02-16T12:32:42.846Z,25.47
2019-02-16T12:37:47.191Z,25.82
2019-02-16T12:40:17.635Z,25.45
2019-02-16T12:42:45.349Z,25.00
2019-02-16T12:45:21.380Z,24.65
2019-02-16T12:47:52.001Z,24.43
2019-02-16T12:50:25.584Z,24.69
2019-02-16T12:52:53.556Z,24.97
2019-02-16T12:55:21.307Z,24.74
2019-02-16T12:57:51.569Z,24.26
2019-02-16T13:00:31.760Z,24.21
2019-02-16T13:03:05.250Z,23.98
2019-02-16T13:05:50.538Z,23.86
2019-02-16T13:08:27.043Z,24.20
2019-02-16T13:11:00.673Z,24.44
2019-02-16T13:13:28.677Z,25.18
2019-02-16T13:15:56.688Z,25.42
2019-02-16T13:18:27.158Z,25.58
2019-02-16T13:20:57.680Z,24.95
2019-02-16T13:23:31.399Z,24.76
2019-02-16T13:26:17.123Z,24.87
2019-02-16T13:29:00.285Z,25.20
2019-02-16T13:31:33.872Z,25.71
2019-02-16T13:34:16.272Z,25.26
2019-02-16T13:37:00.780Z,24.78
2019-02-16T13:39:40.551Z,24.96
2019-02-16T13:42:10.834Z,25.42
2019-02-16T13:44:44.143Z,25.24
2019-02-16T13:47:15.507Z,25.17
2019-02-16T13:49:45.977Z,24.88
2019-02-16T13:52:26.100Z,24.16
2019-02-16T13:55:06.439Z,23.18
2019-02-16T13:57:51.315Z,23.36
2019-02-16T14:00:24.843Z,23.98
2019-02-16T14:02:55.121Z,23.89
2019-02-16T14:05:35.996Z,24.08
2019-02-16T14:08:15.384Z,23.51
2019-02-16T14:10:59.761Z,23.22
2019-02-16T14:13:27.726Z,23.39
2019-02-16T14:15:55.685Z,23.87
2019-02-16T14:18:21.515Z,24.49
2019-02-16T14:20:47.614Z,24.73
2019-02-16T14:23:13.393Z,24.66
2019-02-16T14:25:44.919Z,25.03
2019-02-16T14:28:08.815Z,25.33
2019-02-16T14:30:34.653Z,25.47
2019-02-16T14:33:00.448Z,25.19
2019-02-16T14:35:26.242Z,25.43
2019-02-16T14:37:59.944Z,25.49
2019-02-16T14:40:27.653Z,25.66
2019-02-16T14:42:53.502Z,25.36
2019-02-16T14:45:19.594Z,25.67
2019-02-16T14:47:45.690Z,25.91
2019-02-16T14:50:11.637Z,25.84
2019-02-16T14:52:37.728Z,26.06
2019-02-16T14:55:07.604Z,26.22
2019-02-16T14:57:33.424Z,26.35
2019-02-16T14:59:59.226Z,26.15
2019-02-16T15:02:25.012Z,25.67
2019-02-16T15:04:51.099Z,25.43
2019-02-16T15:07:17.146Z,24.87
2019-02-16T15:09:42.951Z,25.08
2019-02-16T15:12:09.954Z,25.17
2019-02-16T15:14:35.805Z,25.52
2019-02-16T15:17:01.609Z,25.70
2019-02-16T15:19:27.401Z,25.81
2019-02-16T15:21:53.201Z,25.87
2019-02-16T15:24:19.402Z,25.84
2019-02-16T15:26:45.483Z,25.92
2019-02-16T15:29:11.376Z,25.88
2019-02-16T15:31:37.172Z,25.96
2019-02-16T15:34:03.250Z,25.84
2019-02-16T15:36:30.599Z,25.66
2019-02-16T15:38:56.752Z,24.94
2019-02-16T15:41:22.787Z,24.47
2019-02-16T15:43:48.582Z,24.45
2019-02-16T15:46:14.424Z,24.18
2019-02-16T15:48:40.242Z,23.77
2019-02-16T15:51:06.390Z,23.34
2019-02-16T15:53:32.436Z,23.19
2019-02-16T15:55:58.532Z,23.01
2019-02-16T15:58:24.787Z,22.92
2019-02-16T16:00:50.691Z,22.77
2019-02-16T16:03:16.547Z,22.40
2019-02-16T16:05:42.376Z,22.19
2019-02-16T16:08:12.922Z,22.04
2019-02-16T16:10:43.564Z,22.18
2019-02-16T16:13:11.569Z,22.30
2019-02-16T16:15:47.926Z,22.13
2019-02-16T16:18:15.637Z,22.01
2019-02-16T16:21:00.020Z,22.00
2019-02-16T16:23:44.711Z,21.67
2019-02-16T16:26:29.081Z,21.27
2019-02-16T16:29:02.861Z,20.96
2019-02-16T16:31:36.604Z,20.63
2019-02-16T16:34:13.588Z,20.26
2019-02-16T16:36:44.542Z,19.69
2019-02-16T16:39:15.052Z,19.37
2019-02-16T16:41:51.608Z,18.68
2019-02-16T16:44:25.240Z,18.28
2019-02-16T16:46:55.833Z,17.82
2019-02-16T16:49:23.534Z,17.41
2019-02-16T16:51:54.077Z,16.87
2019-02-16T16:54:38.140Z,16.87
2019-02-16T16:57:26.481Z,16.66
2019-02-16T16:59:57.286Z,16.37
2019-02-16T17:02:40.486Z,16.18
2019-02-16T17:05:08.304Z,16.00
2019-02-16T17:07:36.108Z,15.69
2019-02-16T17:10:19.766Z,15.46
2019-02-16T17:13:04.092Z,15.26
2019-02-16T17:15:43.539Z,15.07
2019-02-16T17:18:23.878Z,14.91
2019-02-16T17:21:08.369Z,14.75
2019-02-16T17:23:54.195Z,14.64
2019-02-16T17:26:40.349Z,14.58
2019-02-16T17:29:23.535Z,14.29
2019-02-16T17:31:51.511Z,14.13
2019-02-16T17:34:19.246Z,13.95
2019-02-16T17:36:52.842Z,13.81
2019-02-16T17:39:32.654Z,13.74
2019-02-16T17:42:12.447Z,13.61
2019-02-16T17:44:58.361Z,13.51
2019-02-16T17:47:26.206Z,13.40
2019-02-16T17:50:10.977Z,13.33
2019-02-16T17:52:50.799Z,13.26
2019-02-16T17:55:21.337Z,13.12
2019-02-16T17:58:01.098Z,13.13
2019-02-16T18:00:32.116Z,13.04
2019-02-16T18:05:51.212Z,12.81
2019-02-16T18:08:18.933Z,12.66
2019-02-16T18:10:49.694Z,12.44
2019-02-16T18:13:17.395Z,12.40
2019-02-16T18:15:57.465Z,12.34
2019-02-16T18:18:34.245Z,12.14
2019-02-16T18:21:14.383Z,11.91
2019-02-16T18:23:42.095Z,11.88
2019-02-16T18:26:15.391Z,11.78
2019-02-16T18:28:59.609Z,11.77
2019-02-16T18:31:36.433Z,11.69
2019-02-16T18:34:22.905Z,11.44
2019-02-16T18:36:50.596Z,11.20
2019-02-16T18:39:24.559Z,11.07
2019-02-16T18:41:52.551Z,10.97
2019-02-16T18:44:22.950Z,10.89
2019-02-16T18:46:53.694Z,10.83
2019-02-16T18:49:21.687Z,10.83
2019-02-16T18:52:06.301Z,10.78
2019-02-16T18:54:46.724Z,10.70
2019-02-16T18:57:15.007Z,10.71
2019-02-16T19:02:38.103Z,10.42
2019-02-16T19:05:18.727Z,10.40
2019-02-16T19:07:49.576Z,10.30
2019-02-16T19:10:23.364Z,10.17
2019-02-16T19:12:51.069Z,10.06
2019-02-16T19:15:18.797Z,9.97
2019-02-16T19:17:55.535Z,9.97
2019-02-16T19:20:29.324Z,9.99
2019-02-16T19:23:05.712Z,9.99
2019-02-16T19:25:39.509Z,9.81
2019-02-16T19:28:10.320Z,9.72
2019-02-16T19:30:47.197Z,9.68
2019-02-16T19:33:33.914Z,9.59
2019-02-16T19:36:04.649Z,9.49
2019-02-16T19:38:53.450Z,9.46
2019-02-16T19:41:36.478Z,9.41
2019-02-16T19:44:04.215Z,9.35
2019-02-16T19:46:38.501Z,9.33
2019-02-16T19:49:12.317Z,9.24
2019-02-16T19:51:43.296Z,9.14
2019-02-16T19:54:11.102Z,9.01
2019-02-16T19:56:45.179Z,8.89
2019-02-16T19:59:21.950Z,8.87
2019-02-16T20:01:49.937Z,8.87
2019-02-16T20:07:26.835Z,8.81
2019-02-16T20:09:54.854Z,8.75
2019-02-16T20:12:22.825Z,8.75
2019-02-16T20:15:07.555Z,8.71
2019-02-16T20:17:35.265Z,8.73
2019-02-16T20:20:03.107Z,8.52
2019-02-16T20:22:31.727Z,8.65
2019-02-16T20:25:05.300Z,8.64
2019-02-16T20:27:37.678Z,8.45
2019-02-16T20:30:15.969Z,8.42
2019-02-16T20:32:49.272Z,8.42
2019-02-16T20:35:23.122Z,8.41
2019-02-16T20:37:51.269Z,8.28
2019-02-16T20:40:21.502Z,8.21
2019-02-16T20:42:49.232Z,8.10
2019-02-16T20:45:19.676Z,7.98
2019-02-16T20:47:53.797Z,7.99
2019-02-16T20:50:21.811Z,7.99
2019-02-16T20:53:06.219Z,7.95
2019-02-16T20:55:49.696Z,8.02
2019-02-16T20:58:34.555Z,7.96
2019-02-16T21:01:17.670Z,7.92
2019-02-16T21:03:48.097Z,7.77
2019-02-16T21:06:18.880Z,7.78
2019-02-16T21:11:39.751Z,7.81
2019-02-16T21:14:12.981Z,7.57
2019-02-16T21:16:57.480Z,7.50
2019-02-16T21:19:34.550Z,7.25
2019-02-16T21:22:02.569Z,7.28
2019-02-16T21:24:48.528Z,7.32
2019-02-16T21:27:19.528Z,7.22
2019-02-16T21:29:47.240Z,7.24
2019-02-16T21:32:14.990Z,7.12
2019-02-16T21:34:55.154Z,7.07
2019-02-16T21:37:22.867Z,7.04
2019-02-16T21:40:02.560Z,7.14
2019-02-16T21:42:41.697Z,7.08
2019-02-16T21:45:12.522Z,7.01
2019-02-16T21:47:46.173Z,7.10
2019-02-16T21:50:19.845Z,7.02
2019-02-16T21:52:47.819Z,6.92
2019-02-16T21:55:21.362Z,6.93
2019-02-16T21:58:08.334Z,6.95
2019-02-16T22:00:37.916Z,6.91
2019-02-16T22:03:11.530Z,6.80
2019-02-16T22:05:42.302Z,6.77
2019-02-16T22:08:19.115Z,6.80
2019-02-16T22:10:51.349Z,6.77
2019-02-16T22:13:17.317Z,6.76
2019-02-16T22:15:43.112Z,6.76
2019-02-16T22:18:08.925Z,6.53
2019-02-16T22:20:34.715Z,6.52
2019-02-16T22:23:00.616Z,6.57
2019-02-16T22:25:26.421Z,6.46
2019-02-16T22:27:54.911Z,6.43
2019-02-16T22:30:20.736Z,6.22
2019-02-16T22:32:49.225Z,6.22
2019-02-16T22:35:15.003Z,6.30
2019-02-16T22:37:45.438Z,6.21
2019-02-16T22:40:11.234Z,6.20
2019-02-16T22:42:39.810Z,6.17
2019-02-16T22:45:10.184Z,6.14
2019-02-16T22:47:36.063Z,6.17
2019-02-16T22:50:02.296Z,6.10
2019-02-16T22:52:28.604Z,6.06
2019-02-16T22:54:54.400Z,6.05
2019-02-16T22:57:20.224Z,6.06
2019-02-16T22:59:46.311Z,6.05
2019-02-16T23:02:12.729Z,6.01
2019-02-16T23:04:41.696Z,5.94
2019-02-16T23:07:07.790Z,5.91
2019-02-16T23:09:35.198Z,5.77
2019-02-16T23:12:00.990Z,5.75
2019-02-16T23:14:31.958Z,5.70
2019-02-16T23:16:58.018Z,5.69
2019-02-16T23:19:26.602Z,5.65
2019-02-16T23:21:52.422Z,5.63
2019-02-16T23:24:18.314Z,5.61
2019-02-16T23:26:44.443Z,5.55
2019-02-16T23:29:10.260Z,5.45
2019-02-16T23:31:36.308Z,5.46
2019-02-16T23:34:02.245Z,5.48
2019-02-16T23:36:32.986Z,5.38
2019-02-16T23:38:58.807Z,5.36
2019-02-16T23:41:27.648Z,5.27
2019-02-16T23:43:53.707Z,5.20
2019-02-16T23:46:22.511Z,4.98
2019-02-16T23:48:48.352Z,4.87
2019-02-16T23:51:16.908Z,4.88
2019-02-16T23:53:42.721Z,4.85
2019-02-16T23:56:28.666Z,4.73
2019-02-16T23:58:54.759Z,4.73
